Wind From: 11-12-2017 07:30 Until: 12-12-2017 06:00 warning for: Wind Level: Orange info button

Power and phone distribution networks may be disrupted for relatively long periods., Roofs and chimneys can be damaged. , Tree branches may break. , Vehicles can be deported. , Traffic may be disrupted, particularly on secondary roads in forest areas. Limit your trips. , Limit your speed in highway driving, especially if you drive a vehicle or hitch sensitive to wind. , Do not go for walks in forests or along the coast., In town, be vigilant against possible falling objects., Do not work on roofs and do not touch any electrical line fallen on the ground., Store or secure sensitive objects to wind or likely to be damaged., Always install power generators outside buildings. 


Meteo18 Weather Cam more information Meteo18 Weather Cam


Thunder radar more information blitzortung!


Rain radar more information rain snow radar


Visit our other weather sites:

Template documentation
and downloads

And another site



Weather Underground History page Text

Daily Summary for July 3, 2017 Units:  English    Metric   Both
« Previous Day
Next Day »
Daily Weekly Monthly Yearly Custom
  High: Low: Average:
Temperature: 73.2 °F 58.8 °F 64.9 °F
Dew Point: 61 °F 55.9 °F 59.2 °F
Humidity: 97 % 56 % 83 %
Wind Speed: 12 mph 0 mph 2.9 mph
Wind Gust: 15 mph - -
Wind:- - WSW
Pressure: 30.3 in 30.2 in -
Precipitation: 0 in    
Historical Graphs
 
 
Tabular Data for July 3, 2017
Time Temperature Dew Point Pressure Wind Wind Speed Wind Gust Humidity Rainfall Rate (Hourly)
00:02 60.8 °F 59.7 °F 30.3 in SSW 1 mph 6 mph 96 % 0 in
00:07 61 °F 59.9 °F 30.3 in Calm   4 mph 96 % 0 in
00:12 60.8 °F 59.7 °F 30.3 in Calm   4 mph 96 % 0 in
00:17 60.8 °F 59.7 °F 30.3 in Calm   3 mph 96 % 0 in
00:22 60.6 °F 59.5 °F 30.3 in SW 2 mph 3 mph 96 % 0 in
00:27 60.8 °F 59.7 °F 30.3 in SW 2 mph 3 mph 96 % 0 in
00:32 61 °F 59.9 °F 30.3 in SSW 2 mph 5 mph 96 % 0 in
00:42 61 °F 59.9 °F 30.3 in SW 4 mph 8 mph 96 % 0 in
00:47 61.2 °F 60.1 °F 30.3 in SW 1 mph 8 mph 96 % 0 in
00:52 61 °F 59.9 °F 30.3 in SW 2 mph 7 mph 96 % 0 in
00:57 61.2 °F 60.1 °F 30.3 in SW 1 mph 5 mph 96 % 0 in
01:02 61.2 °F 60.1 °F 30.3 in SW 3 mph 5 mph 96 % 0 in
01:07 61.2 °F 60.1 °F 30.3 in Calm   5 mph 96 % 0 in
01:12 61.2 °F 60.1 °F 30.3 in WSW 3 mph 5 mph 96 % 0 in
01:17 61.2 °F 60.1 °F 30.3 in Calm   5 mph 96 % 0 in
01:22 61.2 °F 60.1 °F 30.3 in Calm   5 mph 96 % 0 in
01:32 61.2 °F 60.1 °F 30.3 in Calm   4 mph 96 % 0 in
01:37 61.3 °F 60.3 °F 30.3 in SW 1 mph 4 mph 96 % 0 in
01:42 61.3 °F 60.3 °F 30.3 in SW 4 mph 4 mph 96 % 0 in
01:47 61.3 °F 60.3 °F 30.3 in West 2 mph 8 mph 96 % 0 in
01:52 61.3 °F 60.3 °F 30.3 in West 2 mph 8 mph 96 % 0 in
01:57 61.3 °F 59.9 °F 30.3 in SW 2 mph 8 mph 95 % 0 in
02:02 61.3 °F 59.9 °F 30.3 in SW 2 mph 7 mph 95 % 0 in
02:07 61.3 °F 59.9 °F 30.3 in SW 2 mph 6 mph 95 % 0 in
02:12 61.2 °F 59.7 °F 30.3 in SW 1 mph 6 mph 95 % 0 in
02:17 61.2 °F 59.7 °F 30.3 in SSW 2 mph 6 mph 95 % 0 in
02:22 61.2 °F 59.7 °F 30.3 in SW 2 mph 4 mph 95 % 0 in
02:27 61.2 °F 59.7 °F 30.3 in WSW 4 mph 4 mph 95 % 0 in
02:32 61.2 °F 59.7 °F 30.3 in West 4 mph 6 mph 95 % 0 in
02:37 61 °F 59.5 °F 30.3 in WSW 2 mph 6 mph 95 % 0 in
02:42 61.2 °F 59.7 °F 30.3 in West 2 mph 6 mph 95 % 0 in
02:47 61 °F 59.5 °F 30.3 in WSW 1 mph 5 mph 95 % 0 in
02:52 61 °F 59.5 °F 30.3 in West 5 mph 6 mph 95 % 0 in
02:57 61 °F 59.9 °F 30.3 in West 2 mph 6 mph 96 % 0 in
03:02 61 °F 59.9 °F 30.3 in SW 1 mph 6 mph 96 % 0 in
03:07 61 °F 59.9 °F 30.3 in West 1 mph 5 mph 96 % 0 in
03:12 61.2 °F 60.1 °F 30.3 in Calm   5 mph 96 % 0 in
03:17 61.2 °F 60.1 °F 30.3 in Calm   2 mph 96 % 0 in
03:22 61.2 °F 60.1 °F 30.3 in Calm   2 mph 96 % 0 in
03:27 61.2 °F 60.1 °F 30.3 in Calm   1 mph 96 % 0 in
03:32 61 °F 59.9 °F 30.3 in WSW 4 mph 4 mph 96 % 0 in
03:37 61 °F 59.9 °F 30.3 in WSW 2 mph 4 mph 96 % 0 in
03:42 61 °F 59.9 °F 30.3 in West 3 mph 4 mph 96 % 0 in
03:47 61 °F 59.9 °F 30.3 in WSW 1 mph 4 mph 96 % 0 in
03:52 61 °F 59.9 °F 30.3 in WSW 2 mph 4 mph 96 % 0 in
03:57 60.8 °F 59.7 °F 30.3 in WSW 3 mph 4 mph 96 % 0 in
04:02 60.8 °F 59.7 °F 30.3 in West 1 mph 4 mph 96 % 0 in
04:07 60.8 °F 59.7 °F 30.3 in WSW 3 mph 4 mph 96 % 0 in
04:12 60.8 °F 59.7 °F 30.3 in WSW 1 mph 4 mph 96 % 0 in
04:17 60.6 °F 59.5 °F 30.3 in WSW 1 mph 4 mph 96 % 0 in
04:22 60.6 °F 59.5 °F 30.3 in Calm   4 mph 96 % 0 in
04:27 60.6 °F 59.5 °F 30.3 in Calm   3 mph 96 % 0 in
04:32 60.6 °F 59.5 °F 30.3 in West 1 mph 2 mph 96 % 0 in
04:37 60.6 °F 59.5 °F 30.3 in West 1 mph 2 mph 96 % 0 in
04:42 60.4 °F 59.4 °F 30.3 in West 1 mph 2 mph 96 % 0 in
04:47 60.4 °F 59.4 °F 30.3 in Calm   3 mph 96 % 0 in
04:52 60.4 °F 59.4 °F 30.3 in Calm   3 mph 96 % 0 in
04:57 60.4 °F 59.4 °F 30.3 in Calm   3 mph 96 % 0 in
05:02 60.4 °F 59.4 °F 30.3 in Calm   3 mph 96 % 0 in
05:07 60.4 °F 59.4 °F 30.3 in Calm     96 % 0 in
05:12 60.6 °F 59.5 °F 30.3 in Calm     96 % 0 in
05:17 60.4 °F 59.4 °F 30.3 in Calm     96 % 0 in
05:22 60.6 °F 59.5 °F 30.3 in Calm     96 % 0 in
05:32 60.6 °F 59.5 °F 30.3 in Calm     96 % 0 in
05:37 60.6 °F 59.5 °F 30.3 in Calm     96 % 0 in
05:42 60.6 °F 59.5 °F 30.3 in Calm     96 % 0 in
05:47 60.6 °F 59.5 °F 30.3 in Calm     96 % 0 in
05:52 60.6 °F 59.5 °F 30.3 in Calm     96 % 0 in
05:57 60.6 °F 59.5 °F 30.3 in Calm     96 % 0 in
06:02 60.6 °F 59.5 °F 30.3 in Calm     96 % 0 in
06:12 60.8 °F 59.7 °F 30.3 in Calm     96 % 0 in
06:17 60.8 °F 59.7 °F 30.3 in Calm     96 % 0 in
06:22 60.8 °F 59.7 °F 30.3 in Calm     96 % 0 in
06:32 60.8 °F 59.7 °F 30.3 in Calm   2 mph 96 % 0 in
06:42 60.8 °F 59.7 °F 30.3 in Calm   2 mph 96 % 0 in
06:52 60.8 °F 59.7 °F 30.3 in Calm     96 % 0 in
07:02 61 °F 60.1 °F 30.3 in Calm     97 % 0 in
07:07 61 °F 60.1 °F 30.3 in Calm     97 % 0 in
07:12 61 °F 60.1 °F 30.3 in Calm     97 % 0 in
07:17 61 °F 59.9 °F 30.3 in Calm     96 % 0 in
07:22 61 °F 60.1 °F 30.3 in Calm     97 % 0 in
07:32 61 °F 60.1 °F 30.3 in SSW 4 mph 4 mph 97 % 0 in
07:37 60.8 °F 59.9 °F 30.3 in SSW 2 mph 5 mph 97 % 0 in
07:42 60.8 °F 59.9 °F 30.3 in SW 3 mph 5 mph 97 % 0 in
07:47 60.8 °F 59.9 °F 30.3 in SSW 3 mph 5 mph 97 % 0 in
07:52 60.6 °F 59.7 °F 30.3 in SSW 2 mph 5 mph 97 % 0 in
08:02 60.6 °F 59.7 °F 30.3 in SW 3 mph 7 mph 97 % 0 in
08:12 60.6 °F 59.7 °F 30.3 in WSW 3 mph 7 mph 97 % 0 in
08:17 60.6 °F 59.7 °F 30.3 in SW 2 mph 6 mph 97 % 0 in
08:22 60.6 °F 59.7 °F 30.3 in West 3 mph 6 mph 97 % 0 in
08:32 60.8 °F 59.9 °F 30.3 in SSW 2 mph 8 mph 97 % 0 in
08:37 60.8 °F 59.9 °F 30.3 in SW 6 mph 8 mph 97 % 0 in
08:42 60.8 °F 59.9 °F 30.3 in WSW 4 mph 6 mph 97 % 0 in
08:47 60.8 °F 59.9 °F 30.3 in SW 4 mph 6 mph 97 % 0 in
08:52 60.6 °F 59.7 °F 30.3 in SW 5 mph 9 mph 97 % 0 in
08:57 60.6 °F 59.7 °F 30.3 in SW 4 mph 9 mph 97 % 0 in
09:02 60.6 °F 59.7 °F 30.3 in SSW 5 mph 9 mph 97 % 0 in
09:12 61 °F 60.1 °F 30.3 in SW 4 mph 8 mph 97 % 0 in
09:17 61 °F 60.1 °F 30.3 in South 4 mph 8 mph 97 % 0 in
09:22 61 °F 60.1 °F 30.3 in SW 4 mph 8 mph 97 % 0 in
09:32 61 °F 60.1 °F 30.3 in SW 1 mph 9 mph 97 % 0 in
09:37 61.2 °F 60.3 °F 30.3 in WSW 5 mph 8 mph 97 % 0 in
09:42 61 °F 60.1 °F 30.3 in WSW 6 mph 9 mph 97 % 0 in
09:47 61 °F 60.1 °F 30.3 in SW 4 mph 11 mph 97 % 0 in
09:52 61 °F 60.1 °F 30.3 in SSW 4 mph 11 mph 97 % 0 in
09:57 61 °F 60.1 °F 30.3 in WSW 5 mph 11 mph 97 % 0 in
10:02 60.6 °F 59.7 °F 30.3 in West 5 mph 8 mph 97 % 0 in
10:12 60.8 °F 59.9 °F 30.3 in WNW 7 mph 8 mph 97 % 0 in
10:17 61 °F 60.1 °F 30.3 in WSW 2 mph 8 mph 97 % 0 in
10:22 61.2 °F 60.3 °F 30.3 in WSW 3 mph 8 mph 97 % 0 in
10:27 61.2 °F 60.1 °F 30.3 in West 7 mph 8 mph 96 % 0 in
10:32 61.2 °F 60.1 °F 30.3 in WNW 6 mph 9 mph 96 % 0 in
10:37 61.2 °F 59.7 °F 30.3 in West 3 mph 10 mph 95 % 0 in
10:42 61.2 °F 59.4 °F 30.3 in West 7 mph 10 mph 94 % 0 in
10:47 61.2 °F 59.4 °F 30.3 in SW 2 mph 11 mph 94 % 0 in
10:52 61.3 °F 59.4 °F 30.3 in WSW 8 mph 11 mph 93 % 0 in
10:57 61.5 °F 59.5 °F 30.3 in West 2 mph 10 mph 93 % 0 in
11:02 61.9 °F 59.5 °F 30.3 in WSW 2 mph 9 mph 92 % 0 in
11:07 62.2 °F 59.5 °F 30.3 in WNW 3 mph 9 mph 91 % 0 in
11:12 62.4 °F 59.4 °F 30.3 in WNW 2 mph 9 mph 90 % 0 in
11:17 62.2 °F 59 °F 30.3 in WNW 6 mph 8 mph 89 % 0 in
11:22 62.6 °F 59.5 °F 30.3 in West 7 mph 10 mph 90 % 0 in
11:27 62.8 °F 59.5 °F 30.3 in WSW 4 mph 11 mph 89 % 0 in
11:32 63.1 °F 59.9 °F 30.3 in SW 3 mph 11 mph 89 % 0 in
11:37 63.3 °F 59.7 °F 30.3 in West 5 mph 11 mph 88 % 0 in
11:42 63.7 °F 59.7 °F 30.3 in WSW 5 mph 11 mph 87 % 0 in
11:47 63.9 °F 59.9 °F 30.3 in West 3 mph 11 mph 87 % 0 in
11:52 63.7 °F 59.7 °F 30.3 in West 4 mph 11 mph 87 % 0 in
11:57 63.7 °F 59.7 °F 30.3 in SW 4 mph 9 mph 87 % 0 in
12:02 64 °F 60.4 °F 30.3 in West 5 mph 8 mph 88 % 0 in
12:07 64 °F 60.1 °F 30.3 in West 3 mph 7 mph 87 % 0 in
12:12 64 °F 59.7 °F 30.3 in WSW 5 mph 8 mph 86 % 0 in
12:17 64.2 °F 59.9 °F 30.3 in WNW 5 mph 9 mph 86 % 0 in
12:22 64.8 °F 60.8 °F 30.3 in West 3 mph 9 mph 87 % 0 in
12:27 65.5 °F 60.8 °F 30.3 in SW 3 mph 9 mph 85 % 0 in
12:32 65.7 °F 60.4 °F 30.3 in West 2 mph 9 mph 83 % 0 in
12:42 66 °F 60.1 °F 30.3 in West 5 mph 11 mph 81 % 0 in
12:47 66.9 °F 60.3 °F 30.3 in WNW 4 mph 11 mph 79 % 0 in
12:52 66.7 °F 60.1 °F 30.3 in WNW 5 mph 11 mph 79 % 0 in
12:57 66.9 °F 60.6 °F 30.3 in West 8 mph 11 mph 80 % 0 in
13:02 67.3 °F 60.3 °F 30.3 in SW 7 mph 11 mph 78 % 0 in
13:07 67.5 °F 60.8 °F 30.3 in Calm   11 mph 79 % 0 in
13:12 67.6 °F 60.6 °F 30.3 in West 4 mph 10 mph 78 % 0 in
13:17 67.3 °F 59.9 °F 30.3 in West 7 mph 10 mph 77 % 0 in
13:22 67.5 °F 60.8 °F 30.3 in WSW 5 mph 11 mph 79 % 0 in
13:27 67.8 °F 60.3 °F 30.3 in WNW 4 mph 11 mph 77 % 0 in
13:32 68 °F 60.4 °F 30.3 in West 6 mph 11 mph 77 % 0 in
13:37 68.4 °F 60.8 °F 30.3 in SW 5 mph 11 mph 77 % 0 in
13:42 69.1 °F 60.4 °F 30.3 in West 4 mph 10 mph 74 % 0 in
13:47 68.7 °F 60.4 °F 30.3 in NW 5 mph 11 mph 75 % 0 in
13:52 68.7 °F 60.8 °F 30.3 in SSE 1 mph 11 mph 76 % 0 in
13:57 69.1 °F 60.4 °F 30.3 in West 7 mph 11 mph 74 % 0 in
14:02 69.4 °F 60.8 °F 30.3 in NW 6 mph 11 mph 74 % 0 in
14:07 70 °F 61 °F 30.3 in WSW 5 mph 11 mph 73 % 0 in
14:12 69.6 °F 60.6 °F 30.3 in WSW 10 mph 12 mph 73 % 0 in
14:17 69.4 °F 60.8 °F 30.3 in West 8 mph 13 mph 74 % 0 in
14:22 69.6 °F 60.3 °F 30.3 in SW 4 mph 13 mph 72 % 0 in
14:27 70 °F 61 °F 30.3 in WSW 10 mph 13 mph 73 % 0 in
14:32 69.3 °F 60.3 °F 30.3 in West 10 mph 11 mph 73 % 0 in
14:37 68.9 °F 60.3 °F 30.3 in West 4 mph 11 mph 74 % 0 in
14:42 69.6 °F 61 °F 30.3 in WNW 3 mph 12 mph 74 % 0 in
14:47 69.8 °F 59.9 °F 30.3 in SW 6 mph 12 mph 71 % 0 in
14:52 69.4 °F 60.1 °F 30.3 in WSW 4 mph 15 mph 72 % 0 in
14:57 69.4 °F 60.1 °F 30.3 in West 6 mph 15 mph 72 % 0 in
15:02 69.6 °F 60.3 °F 30.3 in WSW 7 mph 14 mph 72 % 0 in
15:07 69.4 °F 60.8 °F 30.3 in WSW 5 mph 14 mph 74 % 0 in
15:12 70 °F 60.6 °F 30.3 in West 9 mph 12 mph 72 % 0 in
15:17 69.3 °F 59.5 °F 30.3 in WSW 7 mph 12 mph 71 % 0 in
15:22 68.7 °F 60.1 °F 30.3 in WNW 12 mph 12 mph 74 % 0 in
15:27 68.2 °F 59.9 °F 30.3 in West 10 mph 15 mph 75 % 0 in
15:32 68.4 °F 59.7 °F 30.3 in West 8 mph 15 mph 74 % 0 in
15:37 68.7 °F 60.4 °F 30.3 in SW 6 mph 13 mph 75 % 0 in
15:42 68.5 °F 59.5 °F 30.3 in West 4 mph 13 mph 73 % 0 in
15:47 69.1 °F 60.4 °F 30.3 in West 4 mph 13 mph 74 % 0 in
15:52 69.1 °F 60.1 °F 30.3 in West 7 mph 13 mph 73 % 0 in
15:57 69.1 °F 59.7 °F 30.3 in WNW 3 mph 11 mph 72 % 0 in
16:02 69.3 °F 59.9 °F 30.3 in West 7 mph 11 mph 72 % 0 in
16:07 69.4 °F 59.5 °F 30.3 in WNW 2 mph 13 mph 71 % 0 in
16:12 69.4 °F 59.5 °F 30.3 in WNW 8 mph 13 mph 71 % 0 in
16:17 69.1 °F 59.7 °F 30.3 in WSW 11 mph 14 mph 72 % 0 in
16:22 68.5 °F 59.2 °F 30.3 in WNW 11 mph 14 mph 72 % 0 in
16:27 69.1 °F 60.1 °F 30.3 in West 4 mph 14 mph 73 % 0 in
16:32 69.4 °F 59.5 °F 30.3 in West 3 mph 14 mph 71 % 0 in
16:37 70.2 °F 59.9 °F 30.3 in West 10 mph 13 mph 70 % 0 in
16:42 70.2 °F 59.2 °F 30.3 in West 7 mph 12 mph 68 % 0 in
16:47 70.2 °F 59.2 °F 30.3 in WSW 3 mph 12 mph 68 % 0 in
16:52 70.5 °F 58.6 °F 30.3 in West 9 mph 12 mph 66 % 0 in
16:57 70.2 °F 58.6 °F 30.3 in West 4 mph 14 mph 67 % 0 in
17:02 70.3 °F 59.4 °F 30.3 in WSW 8 mph 14 mph 68 % 0 in
17:12 70.5 °F 57.7 °F 30.3 in WSW 3 mph 14 mph 64 % 0 in
17:17 70.5 °F 57.7 °F 30.3 in Calm   14 mph 64 % 0 in
17:22 71.2 °F 57.9 °F 30.3 in West 4 mph 13 mph 63 % 0 in
17:27 70.9 °F 57.7 °F 30.3 in WNW 7 mph 11 mph 63 % 0 in
17:32 71.2 °F 57.6 °F 30.3 in West 7 mph 11 mph 62 % 0 in
17:37 71.4 °F 57.7 °F 30.3 in SW 2 mph 11 mph 62 % 0 in
17:42 72 °F 57.7 °F 30.3 in West 5 mph 11 mph 61 % 0 in
17:47 72.7 °F 58.5 °F 30.3 in SW 7 mph 11 mph 61 % 0 in
17:52 72.5 °F 57.4 °F 30.3 in WSW 6 mph 9 mph 59 % 0 in
17:57 72.1 °F 56.5 °F 30.3 in WSW 5 mph 10 mph 58 % 0 in
18:02 72.1 °F 57.9 °F 30.3 in West 5 mph 11 mph 61 % 0 in
18:07 72.7 °F 57.6 °F 30.2 in West 7 mph 11 mph 59 % 0 in
18:12 72.9 °F 58.1 °F 30.2 in NW 5 mph 11 mph 60 % 0 in
18:17 72.7 °F 57 °F 30.2 in West 4 mph 13 mph 58 % 0 in
18:22 72.7 °F 57 °F 30.2 in West 6 mph 13 mph 58 % 0 in
18:27 72.3 °F 57.2 °F 30.2 in West 3 mph 13 mph 59 % 0 in
18:32 72.3 °F 57.2 °F 30.2 in Calm   13 mph 59 % 0 in
18:42 73 °F 56.8 °F 30.2 in WNW 4 mph 10 mph 57 % 0 in
18:47 72.9 °F 56.7 °F 30.2 in WNW 2 mph 12 mph 57 % 0 in
18:52 73 °F 56.5 °F 30.2 in West 4 mph 12 mph 56 % 0 in
18:57 73 °F 56.8 °F 30.2 in WNW 5 mph 12 mph 57 % 0 in
19:02 72.9 °F 57.2 °F 30.2 in WNW 6 mph 10 mph 58 % 0 in
19:07 72.7 °F 57 °F 30.2 in SW 4 mph 10 mph 58 % 0 in
19:12 72.7 °F 57 °F 30.2 in West 3 mph 8 mph 58 % 0 in
19:17 72.7 °F 56.5 °F 30.2 in WSW 3 mph 8 mph 57 % 0 in
19:22 72.5 °F 56.8 °F 30.2 in WSW 2 mph 9 mph 58 % 0 in
19:27 72.7 °F 56.5 °F 30.2 in NW 3 mph 9 mph 57 % 0 in
19:32 72.9 °F 57.2 °F 30.2 in WNW 3 mph 9 mph 58 % 0 in
19:37 72.9 °F 56.7 °F 30.2 in NW 5 mph 9 mph 57 % 0 in
19:42 72.9 °F 57.2 °F 30.2 in WNW 2 mph 9 mph 58 % 0 in
19:47 72.9 °F 57.2 °F 30.2 in Calm   8 mph 58 % 0 in
19:52 73 °F 56.8 °F 30.2 in West 2 mph 6 mph 57 % 0 in
19:57 72.9 °F 57.2 °F 30.2 in SSW 3 mph 5 mph 58 % 0 in
20:02 72.9 °F 57.2 °F 30.2 in WNW 3 mph 5 mph 58 % 0 in
20:07 72.9 °F 57.2 °F 30.2 in WSW 4 mph 6 mph 58 % 0 in
20:17 72.9 °F 57.2 °F 30.2 in West 1 mph 9 mph 58 % 0 in
20:22 73 °F 56.8 °F 30.2 in WSW 2 mph 8 mph 57 % 0 in
20:32 73.2 °F 57.6 °F 30.2 in Calm   5 mph 58 % 0 in
20:37 73.2 °F 57 °F 30.2 in NW 2 mph 4 mph 57 % 0 in
20:42 73 °F 57.4 °F 30.2 in WNW 2 mph 4 mph 58 % 0 in
20:47 73 °F 57.4 °F 30.2 in Calm   4 mph 58 % 0 in
20:52 73 °F 57.9 °F 30.2 in WNW 1 mph 3 mph 59 % 0 in
20:57 72.9 °F 57.7 °F 30.2 in WNW 2 mph 2 mph 59 % 0 in
21:02 72.1 °F 57.6 °F 30.2 in WNW 2 mph 3 mph 60 % 0 in
21:07 72 °F 57.7 °F 30.2 in WNW 1 mph 3 mph 61 % 0 in
21:12 71.4 °F 57.2 °F 30.2 in WNW 1 mph 3 mph 61 % 0 in
21:17 71.4 °F 57.7 °F 30.2 in Calm   2 mph 62 % 0 in
21:27 71.4 °F 58.1 °F 30.2 in Calm   2 mph 63 % 0 in
21:32 70.3 °F 58.1 °F 30.2 in Calm   1 mph 65 % 0 in
21:37 68.4 °F 57 °F 30.2 in Calm   1 mph 67 % 0 in
21:42 67.1 °F 57 °F 30.2 in Calm   1 mph 70 % 0 in
21:47 66.6 °F 56.8 °F 30.2 in Calm   1 mph 71 % 0 in
21:52 66 °F 56.7 °F 30.2 in Calm   1 mph 72 % 0 in
21:57 65.1 °F 57 °F 30.2 in Calm   1 mph 75 % 0 in
22:02 64.8 °F 57.4 °F 30.2 in Calm     77 % 0 in
22:07 64.2 °F 57.2 °F 30.2 in Calm     78 % 0 in
22:12 64 °F 57 °F 30.2 in Calm     78 % 0 in
22:17 64 °F 57.4 °F 30.2 in Calm     79 % 0 in
22:22 63.9 °F 57.2 °F 30.2 in Calm     79 % 0 in
22:32 62.4 °F 56.8 °F 30.2 in Calm     82 % 0 in
22:37 61.9 °F 57 °F 30.2 in Calm     84 % 0 in
22:42 61.3 °F 56.8 °F 30.2 in Calm     85 % 0 in
22:47 61.3 °F 57.2 °F 30.2 in Calm     86 % 0 in
22:52 61.2 °F 57 °F 30.2 in Calm     86 % 0 in
22:57 61.2 °F 57 °F 30.2 in Calm     86 % 0 in
23:02 61.3 °F 56.5 °F 30.2 in Calm     84 % 0 in
23:12 61.3 °F 56.5 °F 30.2 in Calm     84 % 0 in
23:17 61.2 °F 56.3 °F 30.2 in Calm     84 % 0 in
23:22 60.8 °F 56.3 °F 30.2 in Calm     85 % 0 in
23:27 60.4 °F 56.3 °F 30.2 in Calm     86 % 0 in
23:32 60.1 °F 56.1 °F 30.2 in Calm     87 % 0 in
23:37 59.5 °F 55.9 °F 30.2 in Calm     88 % 0 in
23:42 59.2 °F 55.9 °F 30.2 in Calm     89 % 0 in
23:47 59 °F 56.1 °F 30.2 in Calm     90 % 0 in
23:52 59 °F 56.1 °F 30.2 in Calm     90 % 0 in
23:57 58.8 °F 55.9 °F 30.2 in Calm     90 % 0 in
Meteo18
Compliments of Weather Underground - 4 mb

Script developed by  Jim McMurry - jmcmurry@mwt.net Adapted for the template by  Wim van der Kuil - Leuven-Template.eu

You find our weather info also at:

European Weather Network

Weather Underground

Equipment we use:

Weather-station
Davis Vue

Weather-program
Meteohub

Weather-server
Raspberry PI 2 B+

Provider
1 and 1

Davis Vue

Meteohub

Raspberry PI 2 B+

1 and 1